sensor_id;sensor_type;location;lat;lon;timestamp;temperature;humidity
18721;DHT22;9489;50.948;3.114;2023-09-19T00:02:17;15.30;99.90
18721;DHT22;9489;50.948;3.114;2023-09-19T00:04:43;15.30;99.90
18721;DHT22;9489;50.948;3.114;2023-09-19T00:07:09;15.30;99.90
18721;DHT22;9489;50.948;3.114;2023-09-19T00:09:34;15.30;99.90
18721;DHT22;9489;50.948;3.114;2023-09-19T00:12:05;15.20;99.90
18721;DHT22;9489;50.948;3.114;2023-09-19T00:14:31;15.20;99.90
18721;DHT22;9489;50.948;3.114;2023-09-19T00:17:00;15.10;99.90
18721;DHT22;9489;50.948;3.114;2023-09-19T00:19:26;15.10;99.90
18721;DHT22;9489;50.948;3.114;2023-09-19T00:21:52;15.10;99.90
18721;DHT22;9489;50.948;3.114;2023-09-19T00:24:18;15.10;99.90
18721;DHT22;9489;50.948;3.114;2023-09-19T00:26:44;15.00;99.90
18721;DHT22;9489;50.948;3.114;2023-09-19T00:29:12;15.00;99.90
18721;DHT22;9489;50.948;3.114;2023-09-19T00:31:43;15.00;99.90
18721;DHT22;9489;50.948;3.114;2023-09-19T00:34:09;15.00;99.90
18721;DHT22;9489;50.948;3.114;2023-09-19T00:36:39;15.00;99.90
18721;DHT22;9489;50.948;3.114;2023-09-19T00:39:06;14.90;99.90
18721;DHT22;9489;50.948;3.114;2023-09-19T00:41:32;15.00;99.90
18721;DHT22;9489;50.948;3.114;2023-09-19T00:44:01;15.00;99.90
18721;DHT22;9489;50.948;3.114;2023-09-19T00:46:27;15.00;99.90
18721;DHT22;9489;50.948;3.114;2023-09-19T00:48:53;15.00;99.90
18721;DHT22;9489;50.948;3.114;2023-09-19T00:51:20;14.90;99.90
18721;DHT22;9489;50.948;3.114;2023-09-19T00:53:47;14.90;99.90
18721;DHT22;9489;50.948;3.114;2023-09-19T00:56:14;14.90;99.90
18721;DHT22;9489;50.948;3.114;2023-09-19T00:58:40;14.80;99.90
18721;DHT22;9489;50.948;3.114;2023-09-19T01:01:06;14.80;99.90
18721;DHT22;9489;50.948;3.114;2023-09-19T01:03:33;14.70;99.90
18721;DHT22;9489;50.948;3.114;2023-09-19T01:06:02;14.70;99.90
18721;DHT22;9489;50.948;3.114;2023-09-19T01:08:28;14.70;99.90
18721;DHT22;9489;50.948;3.114;2023-09-19T01:11:32;14.70;99.90
18721;DHT22;9489;50.948;3.114;2023-09-19T01:14:20;14.70;99.90
18721;DHT22;9489;50.948;3.114;2023-09-19T01:30:40;14.90;99.90
18721;DHT22;9489;50.948;3.114;2023-09-19T01:33:09;14.90;99.90
18721;DHT22;9489;50.948;3.114;2023-09-19T01:35:38;14.90;99.90
18721;DHT22;9489;50.948;3.114;2023-09-19T01:38:05;14.80;99.90
18721;DHT22;9489;50.948;3.114;2023-09-19T01:40:34;14.90;99.90
18721;DHT22;9489;50.948;3.114;2023-09-19T01:43:21;14.90;99.90
18721;DHT22;9489;50.948;3.114;2023-09-19T01:46:19;14.90;99.90
18721;DHT22;9489;50.948;3.114;2023-09-19T01:48:57;14.90;99.90
18721;DHT22;9489;50.948;3.114;2023-09-19T01:51:42;14.90;99.90
18721;DHT22;9489;50.948;3.114;2023-09-19T01:54:12;14.90;99.90
18721;DHT22;9489;50.948;3.114;2023-09-19T01:56:52;14.90;99.90
18721;DHT22;9489;50.948;3.114;2023-09-19T01:59:34;14.90;99.90
18721;DHT22;9489;50.948;3.114;2023-09-19T02:02:01;15.00;99.90
18721;DHT22;9489;50.948;3.114;2023-09-19T02:04:27;15.00;99.90
18721;DHT22;9489;50.948;3.114;2023-09-19T02:06:53;15.00;99.90
18721;DHT22;9489;50.948;3.114;2023-09-19T02:09:19;15.00;99.90
18721;DHT22;9489;50.948;3.114;2023-09-19T02:11:44;15.10;99.90
18721;DHT22;9489;50.948;3.114;2023-09-19T02:14:10;15.10;99.90
18721;DHT22;9489;50.948;3.114;2023-09-19T02:16:35;15.10;99.90
18721;DHT22;9489;50.948;3.114;2023-09-19T02:19:01;15.10;99.90
18721;DHT22;9489;50.948;3.114;2023-09-19T02:21:31;15.00;99.90
18721;DHT22;9489;50.948;3.114;2023-09-19T02:23:57;15.10;99.90
18721;DHT22;9489;50.948;3.114;2023-09-19T02:26:24;15.10;99.90
18721;DHT22;9489;50.948;3.114;2023-09-19T02:28:49;15.10;99.90
18721;DHT22;9489;50.948;3.114;2023-09-19T02:31:15;15.10;99.90
18721;DHT22;9489;50.948;3.114;2023-09-19T02:33:42;15.10;99.90
18721;DHT22;9489;50.948;3.114;2023-09-19T02:36:07;15.10;99.90
18721;DHT22;9489;50.948;3.114;2023-09-19T02:38:34;15.00;99.90
18721;DHT22;9489;50.948;3.114;2023-09-19T02:40:59;15.10;99.90
18721;DHT22;9489;50.948;3.114;2023-09-19T02:43:25;15.10;99.90
18721;DHT22;9489;50.948;3.114;2023-09-19T02:45:51;15.00;99.90
18721;DHT22;9489;50.948;3.114;2023-09-19T02:48:21;15.00;99.90
18721;DHT22;9489;50.948;3.114;2023-09-19T02:50:50;15.00;99.90
18721;DHT22;9489;50.948;3.114;2023-09-19T02:53:16;15.00;99.90
18721;DHT22;9489;50.948;3.114;2023-09-19T02:55:41;15.00;99.90
18721;DHT22;9489;50.948;3.114;2023-09-19T02:58:08;14.90;99.90
18721;DHT22;9489;50.948;3.114;2023-09-19T03:00:33;14.90;99.90
18721;DHT22;9489;50.948;3.114;2023-09-19T03:03:02;14.90;99.90
18721;DHT22;9489;50.948;3.114;2023-09-19T03:05:28;14.90;99.90
18721;DHT22;9489;50.948;3.114;2023-09-19T03:07:57;14.90;99.90
18721;DHT22;9489;50.948;3.114;2023-09-19T03:10:26;14.80;99.90
18721;DHT22;9489;50.948;3.114;2023-09-19T03:12:53;14.70;99.90
18721;DHT22;9489;50.948;3.114;2023-09-19T03:15:19;14.70;99.90
18721;DHT22;9489;50.948;3.114;2023-09-19T03:17:45;14.70;99.90
18721;DHT22;9489;50.948;3.114;2023-09-19T03:20:11;14.70;99.90
18721;DHT22;9489;50.948;3.114;2023-09-19T03:22:39;14.60;99.90
18721;DHT22;9489;50.948;3.114;2023-09-19T03:25:06;14.60;99.90
18721;DHT22;9489;50.948;3.114;2023-09-19T03:27:37;14.50;99.90
18721;DHT22;9489;50.948;3.114;2023-09-19T03:30:04;14.50;99.90
18721;DHT22;9489;50.948;3.114;2023-09-19T03:32:35;14.50;99.90
18721;DHT22;9489;50.948;3.114;2023-09-19T03:35:02;14.40;99.90
18721;DHT22;9489;50.948;3.114;2023-09-19T03:37:30;14.50;99.90
18721;DHT22;9489;50.948;3.114;2023-09-19T03:39:56;14.40;99.90
18721;DHT22;9489;50.948;3.114;2023-09-19T03:42:22;14.40;99.90
18721;DHT22;9489;50.948;3.114;2023-09-19T03:44:51;14.40;99.90
18721;DHT22;9489;50.948;3.114;2023-09-19T03:47:18;14.30;99.90
18721;DHT22;9489;50.948;3.114;2023-09-19T03:49:44;14.30;99.90
18721;DHT22;9489;50.948;3.114;2023-09-19T03:52:10;14.20;99.90
18721;DHT22;9489;50.948;3.114;2023-09-19T03:54:35;14.20;99.90
18721;DHT22;9489;50.948;3.114;2023-09-19T03:57:01;14.20;99.90
18721;DHT22;9489;50.948;3.114;2023-09-19T03:59:28;14.20;99.90
18721;DHT22;9489;50.948;3.114;2023-09-19T04:01:54;14.10;99.90
18721;DHT22;9489;50.948;3.114;2023-09-19T04:04:22;14.10;99.90
18721;DHT22;9489;50.948;3.114;2023-09-19T04:06:53;14.10;99.90
18721;DHT22;9489;50.948;3.114;2023-09-19T04:09:18;14.10;99.90
18721;DHT22;9489;50.948;3.114;2023-09-19T04:11:44;14.00;99.90
18721;DHT22;9489;50.948;3.114;2023-09-19T04:14:10;14.10;99.90
18721;DHT22;9489;50.948;3.114;2023-09-19T04:16:35;14.10;99.90
18721;DHT22;9489;50.948;3.114;2023-09-19T04:19:01;14.10;99.90
18721;DHT22;9489;50.948;3.114;2023-09-19T04:21:28;14.10;99.90
18721;DHT22;9489;50.948;3.114;2023-09-19T04:23:54;14.10;99.90
18721;DHT22;9489;50.948;3.114;2023-09-19T04:26:20;14.10;99.90
18721;DHT22;9489;50.948;3.114;2023-09-19T04:28:47;14.10;99.90
18721;DHT22;9489;50.948;3.114;2023-09-19T04:31:12;14.10;99.90
18721;DHT22;9489;50.948;3.114;2023-09-19T04:33:39;14.10;99.90
18721;DHT22;9489;50.948;3.114;2023-09-19T04:36:05;14.10;99.90
18721;DHT22;9489;50.948;3.114;2023-09-19T04:38:33;14.10;99.90
18721;DHT22;9489;50.948;3.114;2023-09-19T04:40:58;14.10;99.90
18721;DHT22;9489;50.948;3.114;2023-09-19T04:43:25;14.00;99.90
18721;DHT22;9489;50.948;3.114;2023-09-19T04:45:50;14.10;99.90
18721;DHT22;9489;50.948;3.114;2023-09-19T04:48:16;14.00;99.90
18721;DHT22;9489;50.948;3.114;2023-09-19T04:50:43;14.00;99.90
18721;DHT22;9489;50.948;3.114;2023-09-19T04:53:09;14.00;99.90
18721;DHT22;9489;50.948;3.114;2023-09-19T04:55:34;14.00;99.90
18721;DHT22;9489;50.948;3.114;2023-09-19T04:58:00;14.10;99.90
18721;DHT22;9489;50.948;3.114;2023-09-19T05:00:25;14.10;99.90
18721;DHT22;9489;50.948;3.114;2023-09-19T05:02:56;14.10;99.90
18721;DHT22;9489;50.948;3.114;2023-09-19T05:05:22;14.00;99.90
18721;DHT22;9489;50.948;3.114;2023-09-19T05:07:49;14.10;99.90
18721;DHT22;9489;50.948;3.114;2023-09-19T05:10:15;14.10;99.90
18721;DHT22;9489;50.948;3.114;2023-09-19T05:12:41;14.10;99.90
18721;DHT22;9489;50.948;3.114;2023-09-19T05:15:08;14.00;99.90
18721;DHT22;9489;50.948;3.114;2023-09-19T05:17:34;14.00;99.90
18721;DHT22;9489;50.948;3.114;2023-09-19T05:20:00;14.00;99.90
18721;DHT22;9489;50.948;3.114;2023-09-19T05:22:37;14.10;99.90
18721;DHT22;9489;50.948;3.114;2023-09-19T05:25:05;14.10;99.90
18721;DHT22;9489;50.948;3.114;2023-09-19T05:27:31;14.10;99.90
18721;DHT22;9489;50.948;3.114;2023-09-19T05:29:57;14.20;99.90
18721;DHT22;9489;50.948;3.114;2023-09-19T05:32:22;14.20;99.90
18721;DHT22;9489;50.948;3.114;2023-09-19T05:34:49;14.30;99.90
18721;DHT22;9489;50.948;3.114;2023-09-19T05:37:19;14.30;99.90
18721;DHT22;9489;50.948;3.114;2023-09-19T05:39:45;14.30;99.90
18721;DHT22;9489;50.948;3.114;2023-09-19T05:42:10;14.30;99.90
18721;DHT22;9489;50.948;3.114;2023-09-19T05:44:36;14.30;99.90
18721;DHT22;9489;50.948;3.114;2023-09-19T05:47:03;14.40;99.90
18721;DHT22;9489;50.948;3.114;2023-09-19T05:49:28;14.40;99.90
18721;DHT22;9489;50.948;3.114;2023-09-19T05:51:54;14.40;99.90
18721;DHT22;9489;50.948;3.114;2023-09-19T05:54:21;14.40;99.90
18721;DHT22;9489;50.948;3.114;2023-09-19T05:56:47;14.40;99.90
18721;DHT22;9489;50.948;3.114;2023-09-19T05:59:14;14.50;99.90
18721;DHT22;9489;50.948;3.114;2023-09-19T06:01:44;14.40;99.90
18721;DHT22;9489;50.948;3.114;2023-09-19T06:04:10;14.40;99.90
18721;DHT22;9489;50.948;3.114;2023-09-19T06:06:36;14.40;99.90
18721;DHT22;9489;50.948;3.114;2023-09-19T06:09:06;14.40;99.90
18721;DHT22;9489;50.948;3.114;2023-09-19T06:11:34;14.40;99.90
18721;DHT22;9489;50.948;3.114;2023-09-19T06:14:01;14.40;99.90
18721;DHT22;9489;50.948;3.114;2023-09-19T06:16:28;14.40;99.90
18721;DHT22;9489;50.948;3.114;2023-09-19T06:18:54;14.50;99.90
18721;DHT22;9489;50.948;3.114;2023-09-19T06:21:22;14.50;99.90
18721;DHT22;9489;50.948;3.114;2023-09-19T06:23:48;14.50;99.90
18721;DHT22;9489;50.948;3.114;2023-09-19T06:26:14;14.50;99.90
18721;DHT22;9489;50.948;3.114;2023-09-19T06:28:40;14.50;99.90
18721;DHT22;9489;50.948;3.114;2023-09-19T06:31:06;14.60;99.90
18721;DHT22;9489;50.948;3.114;2023-09-19T06:33:35;14.60;99.90
18721;DHT22;9489;50.948;3.114;2023-09-19T06:36:04;14.70;99.90
18721;DHT22;9489;50.948;3.114;2023-09-19T06:38:30;14.70;99.90
18721;DHT22;9489;50.948;3.114;2023-09-19T06:40:56;14.70;99.90
18721;DHT22;9489;50.948;3.114;2023-09-19T06:43:23;14.70;99.90
18721;DHT22;9489;50.948;3.114;2023-09-19T06:45:49;14.80;99.90
18721;DHT22;9489;50.948;3.114;2023-09-19T06:48:17;14.80;99.90
18721;DHT22;9489;50.948;3.114;2023-09-19T06:50:43;14.90;99.90
18721;DHT22;9489;50.948;3.114;2023-09-19T06:53:10;14.90;99.90
18721;DHT22;9489;50.948;3.114;2023-09-19T06:55:36;15.00;99.90
18721;DHT22;9489;50.948;3.114;2023-09-19T06:58:02;15.10;99.90
18721;DHT22;9489;50.948;3.114;2023-09-19T07:00:28;15.10;99.90
18721;DHT22;9489;50.948;3.114;2023-09-19T07:03:00;15.20;99.90
18721;DHT22;9489;50.948;3.114;2023-09-19T07:05:32;15.30;99.90
18721;DHT22;9489;50.948;3.114;2023-09-19T07:08:02;15.30;99.90
18721;DHT22;9489;50.948;3.114;2023-09-19T07:10:27;15.40;99.90
18721;DHT22;9489;50.948;3.114;2023-09-19T07:12:57;15.40;99.90
18721;DHT22;9489;50.948;3.114;2023-09-19T07:15:23;15.50;99.90
18721;DHT22;9489;50.948;3.114;2023-09-19T07:17:51;15.50;99.90
18721;DHT22;9489;50.948;3.114;2023-09-19T07:20:17;15.50;99.90
18721;DHT22;9489;50.948;3.114;2023-09-19T07:22:44;15.60;99.90
18721;DHT22;9489;50.948;3.114;2023-09-19T07:25:09;15.70;99.90
18721;DHT22;9489;50.948;3.114;2023-09-19T07:27:35;15.70;99.90
18721;DHT22;9489;50.948;3.114;2023-09-19T07:30:01;15.80;99.90
18721;DHT22;9489;50.948;3.114;2023-09-19T07:32:26;15.80;99.90
18721;DHT22;9489;50.948;3.114;2023-09-19T07:34:52;15.80;99.90
18721;DHT22;9489;50.948;3.114;2023-09-19T07:37:18;15.90;99.90
18721;DHT22;9489;50.948;3.114;2023-09-19T07:39:44;16.00;99.90
18721;DHT22;9489;50.948;3.114;2023-09-19T07:42:10;16.00;99.90
18721;DHT22;9489;50.948;3.114;2023-09-19T07:44:37;16.20;99.90
18721;DHT22;9489;50.948;3.114;2023-09-19T07:47:02;16.20;99.90
18721;DHT22;9489;50.948;3.114;2023-09-19T07:49:29;16.30;99.90
18721;DHT22;9489;50.948;3.114;2023-09-19T07:51:54;16.20;99.90
18721;DHT22;9489;50.948;3.114;2023-09-19T07:54:20;16.30;99.90
18721;DHT22;9489;50.948;3.114;2023-09-19T07:56:46;16.20;99.90
18721;DHT22;9489;50.948;3.114;2023-09-19T07:59:12;16.40;99.90
18721;DHT22;9489;50.948;3.114;2023-09-19T08:01:39;16.60;99.90
18721;DHT22;9489;50.948;3.114;2023-09-19T08:04:07;16.70;99.90
18721;DHT22;9489;50.948;3.114;2023-09-19T08:06:33;16.80;99.90
18721;DHT22;9489;50.948;3.114;2023-09-19T08:08:58;16.90;99.90
18721;DHT22;9489;50.948;3.114;2023-09-19T08:11:26;17.00;99.90
18721;DHT22;9489;50.948;3.114;2023-09-19T08:13:51;17.20;99.90
18721;DHT22;9489;50.948;3.114;2023-09-19T08:16:17;17.30;99.90
18721;DHT22;9489;50.948;3.114;2023-09-19T08:18:48;17.40;99.90
18721;DHT22;9489;50.948;3.114;2023-09-19T08:21:14;17.50;99.90
18721;DHT22;9489;50.948;3.114;2023-09-19T08:23:40;17.60;99.90
18721;DHT22;9489;50.948;3.114;2023-09-19T08:26:06;17.60;99.90
18721;DHT22;9489;50.948;3.114;2023-09-19T08:28:34;17.60;99.90
18721;DHT22;9489;50.948;3.114;2023-09-19T08:31:04;17.80;99.90
18721;DHT22;9489;50.948;3.114;2023-09-19T08:33:33;17.80;99.90
18721;DHT22;9489;50.948;3.114;2023-09-19T08:35:59;17.80;99.90
18721;DHT22;9489;50.948;3.114;2023-09-19T08:38:25;17.70;99.90
18721;DHT22;9489;50.948;3.114;2023-09-19T08:40:57;17.80;99.90
18721;DHT22;9489;50.948;3.114;2023-09-19T08:43:24;17.80;99.90
18721;DHT22;9489;50.948;3.114;2023-09-19T08:45:50;17.90;99.90
18721;DHT22;9489;50.948;3.114;2023-09-19T08:48:29;18.00;99.90
18721;DHT22;9489;50.948;3.114;2023-09-19T08:51:10;18.10;99.90
18721;DHT22;9489;50.948;3.114;2023-09-19T08:54:07;18.00;99.90
18721;DHT22;9489;50.948;3.114;2023-09-19T08:56:33;18.00;99.90
18721;DHT22;9489;50.948;3.114;2023-09-19T08:59:05;18.00;99.90
18721;DHT22;9489;50.948;3.114;2023-09-19T09:01:33;17.90;99.90
18721;DHT22;9489;50.948;3.114;2023-09-19T09:04:00;17.80;99.90
18721;DHT22;9489;50.948;3.114;2023-09-19T09:06:27;17.90;99.90
18721;DHT22;9489;50.948;3.114;2023-09-19T09:08:53;17.90;99.90
18721;DHT22;9489;50.948;3.114;2023-09-19T09:11:20;18.00;99.90
18721;DHT22;9489;50.948;3.114;2023-09-19T09:13:46;18.20;99.90
18721;DHT22;9489;50.948;3.114;2023-09-19T09:16:13;18.50;99.90
18721;DHT22;9489;50.948;3.114;2023-09-19T09:18:39;19.10;99.90
18721;DHT22;9489;50.948;3.114;2023-09-19T09:21:05;19.70;99.90
18721;DHT22;9489;50.948;3.114;2023-09-19T09:23:31;19.90;99.90
18721;DHT22;9489;50.948;3.114;2023-09-19T09:25:59;19.60;99.90
18721;DHT22;9489;50.948;3.114;2023-09-19T09:28:29;19.50;99.90
18721;DHT22;9489;50.948;3.114;2023-09-19T09:30:56;19.80;99.90
18721;DHT22;9489;50.948;3.114;2023-09-19T09:33:24;20.10;99.90
18721;DHT22;9489;50.948;3.114;2023-09-19T09:35:58;20.20;99.90
18721;DHT22;9489;50.948;3.114;2023-09-19T09:38:28;20.50;99.90
18721;DHT22;9489;50.948;3.114;2023-09-19T09:40:57;20.70;99.90
18721;DHT22;9489;50.948;3.114;2023-09-19T09:43:28;20.60;99.90
18721;DHT22;9489;50.948;3.114;2023-09-19T09:46:17;20.50;99.90
18721;DHT22;9489;50.948;3.114;2023-09-19T09:49:03;20.50;99.90
18721;DHT22;9489;50.948;3.114;2023-09-19T09:52:01;20.80;99.90
18721;DHT22;9489;50.948;3.114;2023-09-19T09:54:31;21.70;99.90
18721;DHT22;9489;50.948;3.114;2023-09-19T09:57:06;21.90;99.90
18721;DHT22;9489;50.948;3.114;2023-09-19T10:02:28;23.20;99.90
18721;DHT22;9489;50.948;3.114;2023-09-19T10:04:57;23.40;99.90
18721;DHT22;9489;50.948;3.114;2023-09-19T10:07:41;23.90;99.90
18721;DHT22;9489;50.948;3.114;2023-09-19T10:10:13;24.30;99.90
18721;DHT22;9489;50.948;3.114;2023-09-19T10:12:48;24.00;99.90
18721;DHT22;9489;50.948;3.114;2023-09-19T10:15:18;24.20;99.90
18721;DHT22;9489;50.948;3.114;2023-09-19T10:17:46;24.20;99.90
18721;DHT22;9489;50.948;3.114;2023-09-19T10:20:14;23.90;99.90
18721;DHT22;9489;50.948;3.114;2023-09-19T10:23:12;24.10;99.90
18721;DHT22;9489;50.948;3.114;2023-09-19T10:25:43;24.60;99.90
18721;DHT22;9489;50.948;3.114;2023-09-19T10:28:13;24.50;99.90
18721;DHT22;9489;50.948;3.114;2023-09-19T10:30:46;24.50;99.90
18721;DHT22;9489;50.948;3.114;2023-09-19T10:33:14;24.60;99.90
18721;DHT22;9489;50.948;3.114;2023-09-19T10:35:43;24.30;99.90
18721;DHT22;9489;50.948;3.114;2023-09-19T10:38:13;24.10;99.90
18721;DHT22;9489;50.948;3.114;2023-09-19T10:40:40;24.10;99.90
18721;DHT22;9489;50.948;3.114;2023-09-19T10:43:18;24.30;99.90
18721;DHT22;9489;50.948;3.114;2023-09-19T10:45:45;24.70;99.90
18721;DHT22;9489;50.948;3.114;2023-09-19T10:48:18;24.30;99.90
18721;DHT22;9489;50.948;3.114;2023-09-19T10:50:50;23.60;99.90
18721;DHT22;9489;50.948;3.114;2023-09-19T10:53:17;23.00;99.90
18721;DHT22;9489;50.948;3.114;2023-09-19T10:55:50;22.90;99.90
18721;DHT22;9489;50.948;3.114;2023-09-19T10:58:27;23.40;99.90
18721;DHT22;9489;50.948;3.114;2023-09-19T11:00:55;23.80;99.90
18721;DHT22;9489;50.948;3.114;2023-09-19T11:03:23;23.10;99.90
18721;DHT22;9489;50.948;3.114;2023-09-19T11:06:27;22.40;99.90
18721;DHT22;9489;50.948;3.114;2023-09-19T11:11:44;21.90;99.90
18721;DHT22;9489;50.948;3.114;2023-09-19T11:30:35;21.00;99.90
18721;DHT22;9489;50.948;3.114;2023-09-19T11:36:11;21.50;99.90
18721;DHT22;9489;50.948;3.114;2023-09-19T11:46:52;22.40;99.90
18721;DHT22;9489;50.948;3.114;2023-09-19T11:49:19;21.90;99.90
18721;DHT22;9489;50.948;3.114;2023-09-19T11:51:52;21.80;99.90
18721;DHT22;9489;50.948;3.114;2023-09-19T11:54:18;21.90;99.90
18721;DHT22;9489;50.948;3.114;2023-09-19T11:56:45;22.00;99.90
18721;DHT22;9489;50.948;3.114;2023-09-19T11:59:20;22.20;99.90
18721;DHT22;9489;50.948;3.114;2023-09-19T12:01:57;22.60;99.90
18721;DHT22;9489;50.948;3.114;2023-09-19T12:04:39;22.90;99.90
18721;DHT22;9489;50.948;3.114;2023-09-19T12:07:12;22.80;99.90
18721;DHT22;9489;50.948;3.114;2023-09-19T12:09:49;22.20;99.90
18721;DHT22;9489;50.948;3.114;2023-09-19T12:12:26;21.90;99.90
18721;DHT22;9489;50.948;3.114;2023-09-19T12:14:56;21.50;99.90
18721;DHT22;9489;50.948;3.114;2023-09-19T12:17:38;21.30;99.90
18721;DHT22;9489;50.948;3.114;2023-09-19T12:20:05;21.10;99.90
18721;DHT22;9489;50.948;3.114;2023-09-19T12:22:46;20.90;99.90
18721;DHT22;9489;50.948;3.114;2023-09-19T12:25:15;20.90;99.90
18721;DHT22;9489;50.948;3.114;2023-09-19T12:27:43;20.90;99.90
18721;DHT22;9489;50.948;3.114;2023-09-19T12:30:10;21.00;99.90
18721;DHT22;9489;50.948;3.114;2023-09-19T12:32:39;21.10;99.90
18721;DHT22;9489;50.948;3.114;2023-09-19T12:35:08;21.20;99.90
18721;DHT22;9489;50.948;3.114;2023-09-19T12:37:37;21.20;99.90
18721;DHT22;9489;50.948;3.114;2023-09-19T12:40:08;21.00;99.90
18721;DHT22;9489;50.948;3.114;2023-09-19T12:42:45;20.80;99.90
18721;DHT22;9489;50.948;3.114;2023-09-19T12:45:12;20.80;99.90
18721;DHT22;9489;50.948;3.114;2023-09-19T12:47:40;20.90;99.90
18721;DHT22;9489;50.948;3.114;2023-09-19T12:50:26;21.10;99.90
18721;DHT22;9489;50.948;3.114;2023-09-19T12:52:55;21.10;99.90
18721;DHT22;9489;50.948;3.114;2023-09-19T12:55:29;21.10;99.90
18721;DHT22;9489;50.948;3.114;2023-09-19T12:58:11;21.00;99.90
18721;DHT22;9489;50.948;3.114;2023-09-19T13:00:39;21.00;99.90
18721;DHT22;9489;50.948;3.114;2023-09-19T13:03:32;21.00;99.90
18721;DHT22;9489;50.948;3.114;2023-09-19T13:06:01;20.90;99.90
18721;DHT22;9489;50.948;3.114;2023-09-19T13:08:34;20.80;99.90
18721;DHT22;9489;50.948;3.114;2023-09-19T13:13:43;20.60;99.90
18721;DHT22;9489;50.948;3.114;2023-09-19T13:16:14;20.50;99.90
18721;DHT22;9489;50.948;3.114;2023-09-19T13:18:47;20.40;99.90
18721;DHT22;9489;50.948;3.114;2023-09-19T13:21:16;20.40;99.90
18721;DHT22;9489;50.948;3.114;2023-09-19T13:23:51;20.60;99.90
18721;DHT22;9489;50.948;3.114;2023-09-19T13:26:18;21.10;99.90
18721;DHT22;9489;50.948;3.114;2023-09-19T13:28:44;21.20;99.90
18721;DHT22;9489;50.948;3.114;2023-09-19T13:31:10;20.80;99.90
18721;DHT22;9489;50.948;3.114;2023-09-19T13:33:46;20.70;99.90
18721;DHT22;9489;50.948;3.114;2023-09-19T13:36:12;20.60;99.90
18721;DHT22;9489;50.948;3.114;2023-09-19T13:38:41;20.50;99.90
18721;DHT22;9489;50.948;3.114;2023-09-19T13:41:10;20.40;99.90
18721;DHT22;9489;50.948;3.114;2023-09-19T13:43:37;20.30;99.90
18721;DHT22;9489;50.948;3.114;2023-09-19T13:46:02;20.10;99.90
18721;DHT22;9489;50.948;3.114;2023-09-19T13:48:28;20.10;99.90
18721;DHT22;9489;50.948;3.114;2023-09-19T13:50:55;20.10;99.90
18721;DHT22;9489;50.948;3.114;2023-09-19T13:53:21;20.00;99.90
18721;DHT22;9489;50.948;3.114;2023-09-19T13:55:46;20.10;99.90
18721;DHT22;9489;50.948;3.114;2023-09-19T13:58:14;20.10;99.90
18721;DHT22;9489;50.948;3.114;2023-09-19T14:00:39;20.20;99.90
18721;DHT22;9489;50.948;3.114;2023-09-19T14:03:05;20.30;99.90
18721;DHT22;9489;50.948;3.114;2023-09-19T14:05:31;20.40;99.90
18721;DHT22;9489;50.948;3.114;2023-09-19T14:07:57;20.50;99.90
18721;DHT22;9489;50.948;3.114;2023-09-19T14:10:24;20.60;99.90
18721;DHT22;9489;50.948;3.114;2023-09-19T14:12:51;20.60;99.90
18721;DHT22;9489;50.948;3.114;2023-09-19T14:15:17;20.50;99.90
18721;DHT22;9489;50.948;3.114;2023-09-19T14:17:43;20.50;99.90
18721;DHT22;9489;50.948;3.114;2023-09-19T14:20:10;20.40;99.90
18721;DHT22;9489;50.948;3.114;2023-09-19T14:22:36;20.40;99.90
18721;DHT22;9489;50.948;3.114;2023-09-19T14:25:05;20.30;99.90
18721;DHT22;9489;50.948;3.114;2023-09-19T14:27:31;20.20;99.90
18721;DHT22;9489;50.948;3.114;2023-09-19T14:29:57;20.20;99.90
18721;DHT22;9489;50.948;3.114;2023-09-19T14:32:23;20.20;99.90
18721;DHT22;9489;50.948;3.114;2023-09-19T14:34:49;20.20;99.90
18721;DHT22;9489;50.948;3.114;2023-09-19T14:37:15;20.10;99.90
18721;DHT22;9489;50.948;3.114;2023-09-19T14:39:43;19.90;99.90
18721;DHT22;9489;50.948;3.114;2023-09-19T14:42:11;19.80;99.90
18721;DHT22;9489;50.948;3.114;2023-09-19T14:44:40;19.70;99.90
18721;DHT22;9489;50.948;3.114;2023-09-19T14:47:05;19.70;99.90
18721;DHT22;9489;50.948;3.114;2023-09-19T14:49:36;19.70;99.90
18721;DHT22;9489;50.948;3.114;2023-09-19T14:52:09;19.60;99.90
18721;DHT22;9489;50.948;3.114;2023-09-19T14:54:38;19.50;99.90
18721;DHT22;9489;50.948;3.114;2023-09-19T14:57:06;19.50;99.90
18721;DHT22;9489;50.948;3.114;2023-09-19T14:59:34;19.60;99.90
18721;DHT22;9489;50.948;3.114;2023-09-19T15:02:06;19.50;99.90
18721;DHT22;9489;50.948;3.114;2023-09-19T15:04:32;19.60;99.90
18721;DHT22;9489;50.948;3.114;2023-09-19T15:06:59;19.60;99.90
18721;DHT22;9489;50.948;3.114;2023-09-19T15:09:25;19.50;99.90
18721;DHT22;9489;50.948;3.114;2023-09-19T15:11:55;19.50;99.90
18721;DHT22;9489;50.948;3.114;2023-09-19T15:14:24;19.50;99.90
18721;DHT22;9489;50.948;3.114;2023-09-19T15:16:50;19.40;99.90
18721;DHT22;9489;50.948;3.114;2023-09-19T15:19:16;19.40;99.90
18721;DHT22;9489;50.948;3.114;2023-09-19T15:21:43;19.30;99.90
18721;DHT22;9489;50.948;3.114;2023-09-19T15:24:09;19.30;99.90
18721;DHT22;9489;50.948;3.114;2023-09-19T15:26:38;19.30;99.90
18721;DHT22;9489;50.948;3.114;2023-09-19T15:29:09;19.30;99.90
18721;DHT22;9489;50.948;3.114;2023-09-19T15:31:35;19.30;99.90
18721;DHT22;9489;50.948;3.114;2023-09-19T15:34:05;19.30;99.90
18721;DHT22;9489;50.948;3.114;2023-09-19T15:36:34;19.20;99.90
18721;DHT22;9489;50.948;3.114;2023-09-19T15:39:04;19.30;99.90
18721;DHT22;9489;50.948;3.114;2023-09-19T15:41:36;19.20;99.90
18721;DHT22;9489;50.948;3.114;2023-09-19T15:44:10;19.20;99.90
18721;DHT22;9489;50.948;3.114;2023-09-19T15:46:36;19.00;99.90
18721;DHT22;9489;50.948;3.114;2023-09-19T15:49:03;19.00;99.90
18721;DHT22;9489;50.948;3.114;2023-09-19T15:51:29;18.90;99.90
18721;DHT22;9489;50.948;3.114;2023-09-19T15:53:56;18.80;99.90
18721;DHT22;9489;50.948;3.114;2023-09-19T15:56:22;18.80;99.90
18721;DHT22;9489;50.948;3.114;2023-09-19T15:58:50;18.60;99.90
18721;DHT22;9489;50.948;3.114;2023-09-19T16:01:17;18.60;99.90
18721;DHT22;9489;50.948;3.114;2023-09-19T16:03:52;18.60;99.90
18721;DHT22;9489;50.948;3.114;2023-09-19T16:06:23;18.50;99.90
18721;DHT22;9489;50.948;3.114;2023-09-19T16:08:50;18.50;99.90
18721;DHT22;9489;50.948;3.114;2023-09-19T16:11:17;18.40;99.90
18721;DHT22;9489;50.948;3.114;2023-09-19T16:13:43;18.30;99.90
18721;DHT22;9489;50.948;3.114;2023-09-19T16:16:12;18.30;99.90
18721;DHT22;9489;50.948;3.114;2023-09-19T16:18:59;18.20;99.90
18721;DHT22;9489;50.948;3.114;2023-09-19T16:21:28;18.00;99.90
18721;DHT22;9489;50.948;3.114;2023-09-19T16:23:55;18.00;99.90
18721;DHT22;9489;50.948;3.114;2023-09-19T16:26:21;17.90;99.90
18721;DHT22;9489;50.948;3.114;2023-09-19T16:28:51;17.80;99.90
18721;DHT22;9489;50.948;3.114;2023-09-19T16:31:16;17.90;99.90
18721;DHT22;9489;50.948;3.114;2023-09-19T16:33:47;17.80;99.90
18721;DHT22;9489;50.948;3.114;2023-09-19T16:36:15;17.80;99.90
18721;DHT22;9489;50.948;3.114;2023-09-19T16:38:43;17.80;99.90
18721;DHT22;9489;50.948;3.114;2023-09-19T16:41:09;17.80;99.90
18721;DHT22;9489;50.948;3.114;2023-09-19T16:43:35;17.80;99.90
18721;DHT22;9489;50.948;3.114;2023-09-19T16:46:07;17.80;99.90